createdAt,value
2019-01-14T00:03:43.053Z,5.14
2019-01-14T00:08:45.590Z,4.79
2019-01-14T00:13:47.964Z,4.72
2019-01-14T00:18:50.371Z,4.56
2019-01-14T00:23:52.541Z,4.70
2019-01-14T00:28:54.916Z,4.36
2019-01-14T00:33:57.167Z,4.36
2019-01-14T00:38:59.438Z,4.60
2019-01-14T00:44:01.989Z,4.51
2019-01-14T00:49:04.945Z,4.51
2019-01-14T00:54:08.284Z,4.80
2019-01-14T00:59:10.678Z,4.71
2019-01-14T01:04:12.837Z,4.68
2019-01-14T01:09:16.259Z,4.51
2019-01-14T01:14:37.100Z,4.78
2019-01-14T01:19:58.587Z,4.57
2019-01-14T01:25:19.462Z,4.60
2019-01-14T01:30:40.538Z,4.35
2019-01-14T01:36:00.834Z,4.36
2019-01-14T01:41:21.531Z,4.26
2019-01-14T01:46:42.175Z,4.32
2019-01-14T01:52:02.983Z,4.13
2019-01-14T01:57:23.471Z,4.13
2019-01-14T02:02:44.224Z,3.87
2019-01-14T02:08:04.828Z,4.10
2019-01-14T02:13:25.268Z,4.10
2019-01-14T02:18:45.910Z,4.10
2019-01-14T02:24:06.513Z,4.06
2019-01-14T02:29:27.316Z,3.96
2019-01-14T02:34:48.365Z,3.94
2019-01-14T02:40:10.877Z,3.84
2019-01-14T02:45:31.690Z,3.66
2019-01-14T02:50:52.087Z,3.81
2019-01-14T02:56:13.037Z,3.83
2019-01-14T03:01:33.437Z,3.71
2019-01-14T03:06:57.980Z,3.75
2019-01-14T03:12:16.818Z,3.66
2019-01-14T03:17:37.602Z,3.64
2019-01-14T03:22:57.883Z,3.53
2019-01-14T03:28:18.506Z,3.42
2019-01-14T03:33:39.141Z,3.59
2019-01-14T03:38:59.932Z,3.31
2019-01-14T03:44:20.556Z,3.31
2019-01-14T03:49:41.288Z,3.02
2019-01-14T03:55:04.801Z,3.02
2019-01-14T04:00:25.492Z,3.13
2019-01-14T04:05:47.165Z,2.99
2019-01-14T04:11:07.544Z,2.99
2019-01-14T04:16:28.432Z,2.79
2019-01-14T04:21:48.958Z,2.85
2019-01-14T04:27:09.693Z,2.62
2019-01-14T04:32:30.449Z,2.67
2019-01-14T04:37:51.594Z,2.79
2019-01-14T04:43:12.167Z,2.53
2019-01-14T04:48:32.759Z,2.56
2019-01-14T04:53:53.620Z,2.50
2019-01-14T04:59:14.219Z,2.48
2019-01-14T05:04:35.377Z,2.37
2019-01-14T05:09:59.406Z,2.26
2019-01-14T05:15:20.033Z,2.15
2019-01-14T05:20:40.934Z,2.29
2019-01-14T05:26:01.530Z,2.28
2019-01-14T05:31:22.222Z,2.29
2019-01-14T05:36:42.583Z,2.25
2019-01-14T05:42:03.522Z,2.24
2019-01-14T05:47:24.088Z,2.27
2019-01-14T05:52:45.339Z,2.38
2019-01-14T05:57:47.893Z,2.40
2019-01-14T06:02:49.923Z,2.44
2019-01-14T06:07:52.265Z,2.41
2019-01-14T06:12:54.603Z,2.50
2019-01-14T06:17:58.121Z,2.47
2019-01-14T06:23:00.452Z,2.61
2019-01-14T06:28:02.853Z,2.37
2019-01-14T06:33:05.157Z,2.53
2019-01-14T06:38:09.062Z,2.49
2019-01-14T06:43:11.385Z,2.55
2019-01-14T06:48:13.531Z,2.71
2019-01-14T06:53:16.009Z,2.87
2019-01-14T06:58:18.545Z,2.94
2019-01-14T07:03:21.017Z,3.12
2019-01-14T07:08:23.525Z,3.14
2019-01-14T07:13:26.999Z,3.18
2019-01-14T07:18:29.295Z,2.96
2019-01-14T07:23:31.507Z,2.79
2019-01-14T07:28:33.691Z,2.57
2019-01-14T07:33:36.121Z,2.67
2019-01-14T07:38:38.522Z,2.53
2019-01-14T07:43:41.169Z,2.57
2019-01-14T07:48:44.013Z,2.64
2019-01-14T07:53:46.472Z,2.63
2019-01-14T07:58:48.966Z,2.68
2019-01-14T08:03:51.468Z,2.78
2019-01-14T08:08:53.791Z,2.75
2019-01-14T08:13:56.485Z,2.63
2019-01-14T08:18:59.052Z,2.67
2019-01-14T08:24:01.511Z,2.69
2019-01-14T08:29:05.336Z,2.65
2019-01-14T08:34:07.764Z,2.39
2019-01-14T08:39:09.956Z,2.21
2019-01-14T08:44:13.149Z,2.34
2019-01-14T08:49:16.493Z,2.42
2019-01-14T08:54:19.762Z,2.41
2019-01-14T08:59:22.303Z,2.38
2019-01-14T09:04:32.148Z,2.33
2019-01-14T09:09:29.392Z,2.13
2019-01-14T09:14:32.191Z,2.06
2019-01-14T09:19:35.734Z,2.18
2019-01-14T09:24:38.223Z,2.23
2019-01-14T09:29:40.860Z,2.26
2019-01-14T09:34:43.415Z,2.22
2019-01-14T09:39:46.337Z,2.25
2019-01-14T09:44:50.114Z,2.28
2019-01-14T09:49:52.509Z,1.95
2019-01-14T09:54:55.762Z,1.80
2019-01-14T09:59:58.488Z,1.62
2019-01-14T10:05:01.232Z,1.73
2019-01-14T10:10:07.462Z,1.94
2019-01-14T10:15:13.251Z,2.22
2019-01-14T10:20:16.279Z,2.56
2019-01-14T10:25:19.029Z,2.75
2019-01-14T10:30:21.864Z,2.76
2019-01-14T10:35:24.722Z,2.86
2019-01-14T10:40:27.172Z,3.09
2019-01-14T10:45:29.594Z,3.08
2019-01-14T10:50:32.283Z,3.02
2019-01-14T10:55:34.687Z,2.92
2019-01-14T11:00:36.953Z,2.84
2019-01-14T11:05:39.338Z,2.81
2019-01-14T11:10:43.603Z,2.76
2019-01-14T11:16:05.361Z,2.75
2019-01-14T11:21:26.887Z,2.74
2019-01-14T11:26:47.518Z,2.77
2019-01-14T11:32:08.925Z,2.70
2019-01-14T11:37:29.655Z,2.63
2019-01-14T11:42:50.349Z,2.59
2019-01-14T11:48:11.368Z,2.63
2019-01-14T11:53:32.244Z,2.92
2019-01-14T11:58:53.025Z,2.53
2019-01-14T12:04:13.650Z,2.60
2019-01-14T12:09:34.432Z,2.80
2019-01-14T12:14:54.825Z,3.06
2019-01-14T12:20:15.562Z,3.22
2019-01-14T12:25:36.075Z,3.25
2019-01-14T12:30:56.952Z,1.05
2019-01-14T12:36:17.474Z,0.81
2019-01-14T12:41:38.142Z,0.74
2019-01-14T12:46:58.679Z,0.97
2019-01-14T12:52:19.436Z,1.12
2019-01-14T12:57:40.041Z,1.35
2019-01-14T13:03:00.882Z,1.88
2019-01-14T13:08:21.589Z,3.43
2019-01-14T13:13:42.375Z,3.43
2019-01-14T13:19:03.743Z,3.27
2019-01-14T13:24:24.369Z,3.39
2019-01-14T13:29:44.939Z,2.55
2019-01-14T13:35:06.046Z,2.11
2019-01-14T13:40:26.858Z,1.75
2019-01-14T13:45:47.256Z,2.20
2019-01-14T13:51:08.098Z,1.54
2019-01-14T13:56:28.658Z,1.33
2019-01-14T14:01:49.335Z,1.11
2019-01-14T14:07:09.807Z,0.42
2019-01-14T14:12:31.583Z,-0.36
2019-01-14T14:17:52.346Z,-0.47
2019-01-14T14:23:12.883Z,-0.18
2019-01-14T14:28:33.520Z,-0.20
2019-01-14T14:33:53.767Z,-0.15
2019-01-14T14:39:14.392Z,-0.11
2019-01-14T14:44:35.181Z,0.01
2019-01-14T14:49:55.934Z,0.37
2019-01-14T14:55:16.397Z,0.20
2019-01-14T15:00:38.595Z,0.35
2019-01-14T15:05:59.204Z,0.33
2019-01-14T15:11:20.142Z,0.40
2019-01-14T15:16:40.899Z,0.40
2019-01-14T15:22:01.690Z,0.35
2019-01-14T15:27:21.890Z,0.39
2019-01-14T15:32:42.751Z,0.28
2019-01-14T15:38:03.318Z,0.18
2019-01-14T15:43:23.937Z,0.26
2019-01-14T15:48:44.638Z,0.11
2019-01-14T15:54:05.242Z,0.20
2019-01-14T15:59:26.117Z,0.22
2019-01-14T16:04:46.372Z,0.09
2019-01-14T16:10:10.776Z,0.12
2019-01-14T16:15:31.465Z,-0.16
2019-01-14T16:20:52.026Z,-0.09
2019-01-14T16:26:12.699Z,0.01
2019-01-14T16:31:33.376Z,0.08
2019-01-14T16:36:54.012Z,0.01
2019-01-14T16:42:14.771Z,0.02
2019-01-14T16:47:35.652Z,0.01
2019-01-14T16:52:56.278Z,-0.02
2019-01-14T16:58:17.025Z,-0.07
2019-01-14T17:03:37.794Z,0.00
2019-01-14T17:08:58.805Z,-0.06
2019-01-14T17:14:19.391Z,-0.03
2019-01-14T17:19:39.833Z,-0.01
2019-01-14T17:25:00.173Z,0.03
2019-01-14T17:30:20.895Z,0.08
2019-01-14T17:35:41.327Z,0.08
2019-01-14T17:41:02.689Z,-0.11
2019-01-14T17:46:23.205Z,-0.07
2019-01-14T17:51:44.142Z,-0.17
2019-01-14T17:57:04.675Z,-0.14
2019-01-14T18:02:25.275Z,-0.08
2019-01-14T18:07:47.388Z,-0.03
2019-01-14T18:13:08.048Z,-0.09
2019-01-14T18:18:28.277Z,0.03
2019-01-14T18:23:48.703Z,0.16
2019-01-14T18:29:09.401Z,-0.02
2019-01-14T18:34:31.142Z,-0.13
2019-01-14T18:39:53.232Z,-0.06
2019-01-14T18:45:15.247Z,-0.07
2019-01-14T18:50:35.742Z,0.07
2019-01-14T18:55:56.279Z,0.15
2019-01-14T19:01:17.183Z,0.12
2019-01-14T19:06:37.584Z,0.04
2019-01-14T19:11:58.052Z,0.26
2019-01-14T19:17:18.734Z,0.02
2019-01-14T19:22:39.460Z,0.30
2019-01-14T19:28:01.592Z,-0.04
2019-01-14T19:33:22.103Z,0.00
2019-01-14T19:38:42.822Z,0.08
2019-01-14T19:44:03.921Z,0.12
2019-01-14T19:49:24.623Z,0.06
2019-01-14T19:54:45.242Z,0.27
2019-01-14T20:00:08.459Z,0.02
2019-01-14T20:05:29.261Z,0.13
2019-01-14T20:10:50.352Z,0.16
2019-01-14T20:16:11.128Z,0.12
2019-01-14T20:21:31.704Z,0.05
2019-01-14T20:26:52.346Z,0.13
2019-01-14T20:32:12.779Z,0.21
2019-01-14T20:37:33.791Z,0.15
2019-01-14T20:42:56.412Z,0.19
2019-01-14T20:48:17.109Z,0.11
2019-01-14T20:53:37.630Z,0.18
2019-01-14T20:58:58.501Z,0.13
2019-01-14T21:04:19.000Z,0.22
2019-01-14T21:09:45.704Z,0.25
2019-01-14T21:15:08.452Z,0.38
2019-01-14T21:20:29.737Z,0.68
2019-01-14T21:25:50.188Z,0.69
2019-01-14T21:31:11.100Z,0.76
2019-01-14T21:36:31.769Z,0.82
2019-01-14T21:41:52.524Z,0.92
2019-01-14T21:47:13.226Z,0.84
2019-01-14T21:52:33.934Z,0.92
2019-01-14T21:57:54.733Z,1.04
2019-01-14T22:03:15.782Z,1.14
2019-01-14T22:08:36.050Z,1.20
2019-01-14T22:20:31.747Z,1.27
2019-01-14T22:25:52.479Z,1.23
2019-01-14T22:31:13.192Z,1.32
2019-01-14T22:36:33.887Z,1.24
2019-01-14T22:41:54.541Z,1.35
2019-01-14T22:47:15.696Z,1.42
2019-01-14T22:52:36.340Z,1.34
2019-01-14T22:57:57.091Z,1.43
2019-01-14T23:03:18.686Z,1.52
2019-01-14T23:08:39.285Z,1.39
2019-01-14T23:13:59.758Z,1.39
2019-01-14T23:19:20.421Z,1.47
2019-01-14T23:24:41.210Z,1.49
2019-01-14T23:30:01.586Z,1.40
2019-01-14T23:35:22.218Z,1.42
2019-01-14T23:40:43.064Z,1.38
2019-01-14T23:46:03.587Z,1.46
2019-01-14T23:51:24.267Z,1.53
2019-01-14T23:56:44.707Z,1.45
